createdAt,value
2023-01-06T00:01:27.779Z,100739.97
2023-01-06T00:03:59.278Z,100748.66
2023-01-06T00:06:29.560Z,100742.47
2023-01-06T00:09:02.655Z,100740.41
2023-01-06T00:11:30.971Z,100747.69
2023-01-06T00:14:00.305Z,100751.00
2023-01-06T00:16:28.121Z,100757.75
2023-01-06T00:18:58.596Z,100754.16
2023-01-06T00:21:27.438Z,100756.38
2023-01-06T00:23:55.570Z,100763.28
2023-01-06T00:26:24.157Z,100763.94
2023-01-06T00:28:56.926Z,100771.94
2023-01-06T00:31:26.934Z,100776.50
2023-01-06T00:33:58.456Z,100808.53
2023-01-06T00:36:26.362Z,100791.41
2023-01-06T00:38:54.259Z,100797.13
2023-01-06T00:41:40.768Z,100795.84
2023-01-06T00:44:09.340Z,100799.97
2023-01-06T00:46:37.258Z,100800.13
2023-01-06T00:49:07.436Z,100816.38
2023-01-06T00:51:39.108Z,100806.53
2023-01-06T00:54:26.525Z,100810.81
2023-01-06T00:56:55.561Z,100807.63
2023-01-06T00:59:26.276Z,100812.72
2023-01-06T01:01:58.087Z,100809.84
2023-01-06T01:04:27.223Z,100812.53
2023-01-06T01:06:55.572Z,100810.97
2023-01-06T01:09:27.326Z,100829.28
2023-01-06T01:12:10.179Z,100821.06
2023-01-06T01:14:46.931Z,100816.50
2023-01-06T01:17:25.037Z,100825.50
2023-01-06T01:19:55.746Z,100831.47
2023-01-06T01:22:24.953Z,100817.16
2023-01-06T01:24:52.914Z,100818.69
2023-01-06T01:27:20.688Z,100821.66
2023-01-06T01:29:48.672Z,100826.44
2023-01-06T01:32:16.343Z,100830.84
2023-01-06T01:34:44.645Z,100835.91
2023-01-06T01:37:12.342Z,100843.47
2023-01-06T01:39:40.249Z,100844.09
2023-01-06T01:42:18.138Z,100839.84
2023-01-06T01:45:17.775Z,100835.75
2023-01-06T01:48:01.169Z,100839.38
2023-01-06T01:50:37.031Z,100826.63
2023-01-06T01:53:12.738Z,100829.28
2023-01-06T01:55:41.263Z,100840.03
2023-01-06T01:58:10.374Z,100830.25
2023-01-06T02:00:40.014Z,100837.50
2023-01-06T02:03:07.994Z,100832.00
2023-01-06T02:05:42.842Z,100823.69
2023-01-06T02:08:34.171Z,100825.88
2023-01-06T02:11:03.350Z,100824.47
2023-01-06T02:13:33.337Z,100834.09
2023-01-06T02:16:34.435Z,100832.63
2023-01-06T02:19:47.332Z,100832.63
2023-01-06T02:22:49.074Z,100830.63
2023-01-06T02:26:04.041Z,100837.38
2023-01-06T02:29:27.211Z,100842.75
2023-01-06T02:32:30.109Z,100830.78
2023-01-06T02:35:31.324Z,100819.75
2023-01-06T02:38:31.869Z,100818.00
2023-01-06T02:41:12.515Z,100832.66
2023-01-06T02:44:10.642Z,100820.53
2023-01-06T02:47:15.341Z,100825.44
2023-01-06T02:50:22.157Z,100826.22
2023-01-06T02:53:26.997Z,100821.31
2023-01-06T02:55:58.888Z,100827.31
2023-01-06T02:59:02.399Z,100818.47
2023-01-06T03:01:42.434Z,100818.47
2023-01-06T03:04:21.183Z,100827.28
2023-01-06T03:06:52.475Z,100830.78
2023-01-06T03:09:27.143Z,100835.34
2023-01-06T03:11:54.918Z,100830.13
2023-01-06T03:14:31.487Z,100834.25
2023-01-06T03:16:59.381Z,100829.97
2023-01-06T03:19:32.350Z,100825.56
2023-01-06T03:22:03.108Z,100840.84
2023-01-06T03:24:31.057Z,100840.38
2023-01-06T03:26:59.876Z,100842.75
2023-01-06T03:29:29.775Z,100837.53
2023-01-06T03:32:12.215Z,100846.81
2023-01-06T03:35:18.461Z,100849.69
2023-01-06T03:38:01.073Z,100841.16
2023-01-06T03:41:00.506Z,100845.44
2023-01-06T03:43:36.824Z,100848.56
2023-01-06T03:46:44.730Z,100842.75
2023-01-06T03:49:25.844Z,100857.22
2023-01-06T03:52:26.358Z,100852.34
2023-01-06T03:55:31.522Z,100855.03
2023-01-06T03:58:02.190Z,100861.34
2023-01-06T04:00:37.075Z,100855.19
2023-01-06T04:03:14.027Z,100856.44
2023-01-06T04:05:43.919Z,100854.88
2023-01-06T04:08:11.962Z,100860.06
2023-01-06T04:10:41.622Z,100865.91
2023-01-06T04:13:09.496Z,100869.53
2023-01-06T04:15:37.170Z,100864.63
2023-01-06T04:18:08.114Z,100860.09
2023-01-06T04:20:38.885Z,100860.25
2023-01-06T04:23:17.462Z,100859.75
2023-01-06T04:25:45.545Z,100858.81
2023-01-06T04:28:27.116Z,100864.03
2023-01-06T04:31:01.936Z,100875.81
2023-01-06T04:33:33.425Z,100865.22
2023-01-06T04:36:04.490Z,100861.16
2023-01-06T04:38:33.323Z,100872.47
2023-01-06T04:41:01.016Z,100868.22
2023-01-06T04:43:28.926Z,100879.53
2023-01-06T04:45:59.510Z,100886.47
2023-01-06T04:48:27.518Z,100882.22
2023-01-06T04:51:07.201Z,100880.19
2023-01-06T04:53:37.644Z,100878.16
2023-01-06T04:56:09.085Z,100897.19
2023-01-06T04:58:38.053Z,100896.09
2023-01-06T05:01:10.580Z,100893.72
2023-01-06T05:03:40.196Z,100889.16
2023-01-06T05:06:11.870Z,100881.75
2023-01-06T05:08:41.894Z,100890.56
2023-01-06T05:11:14.617Z,100899.22
2023-01-06T05:13:42.987Z,100903.63
2023-01-06T05:16:26.176Z,100911.66
2023-01-06T05:18:55.013Z,100902.97
2023-01-06T05:21:27.226Z,100919.38
2023-01-06T05:23:55.980Z,100919.50
2023-01-06T05:26:26.941Z,100919.34
2023-01-06T05:28:55.447Z,100931.94
2023-01-06T05:31:24.529Z,100927.53
2023-01-06T05:34:00.955Z,100944.56
2023-01-06T05:36:28.666Z,100925.97
2023-01-06T05:38:56.569Z,100930.97
2023-01-06T05:41:24.074Z,100925.75
2023-01-06T05:43:51.995Z,100936.16
2023-01-06T05:46:19.623Z,100926.13
2023-01-06T05:48:47.557Z,100937.31
2023-01-06T05:51:16.629Z,100928.50
2023-01-06T05:53:47.330Z,100934.97
2023-01-06T05:56:21.710Z,100933.88
2023-01-06T05:58:53.416Z,100936.03
2023-01-06T06:01:31.308Z,100941.09
2023-01-06T06:03:59.493Z,100934.31
2023-01-06T06:06:29.597Z,100937.31
2023-01-06T06:08:58.766Z,100941.06
2023-01-06T06:11:26.368Z,100941.09
2023-01-06T06:13:56.690Z,100949.56
2023-01-06T06:16:27.944Z,100960.28
2023-01-06T06:18:59.324Z,100953.34
2023-01-06T06:21:30.328Z,100965.00
2023-01-06T06:24:00.069Z,100964.25
2023-01-06T06:26:28.156Z,100956.56
2023-01-06T06:28:55.936Z,100959.06
2023-01-06T06:31:27.522Z,100951.50
2023-01-06T06:33:59.150Z,100959.34
2023-01-06T06:36:28.685Z,100965.63
2023-01-06T06:39:15.653Z,100960.09
2023-01-06T06:41:43.285Z,100974.16
2023-01-06T06:44:11.205Z,100960.56
2023-01-06T06:46:38.829Z,100970.63
2023-01-06T06:49:06.798Z,100972.69
2023-01-06T06:51:35.245Z,100973.66
2023-01-06T06:54:04.825Z,100964.88
2023-01-06T06:56:32.507Z,100969.16
2023-01-06T06:59:00.528Z,100967.59
2023-01-06T07:01:28.295Z,100961.97
2023-01-06T07:03:56.241Z,100971.75
2023-01-06T07:06:28.798Z,100965.59
2023-01-06T07:08:57.318Z,100978.00
2023-01-06T07:11:24.904Z,100978.69
2023-01-06T07:13:52.910Z,100976.63
2023-01-06T07:16:23.215Z,100967.31
2023-01-06T07:18:51.127Z,100968.78
2023-01-06T07:21:18.964Z,100969.69
2023-01-06T07:23:46.870Z,100965.47
2023-01-06T07:26:15.828Z,100973.31
2023-01-06T07:28:43.955Z,100995.06
2023-01-06T07:31:11.861Z,100989.66
2023-01-06T07:33:39.798Z,101014.34
2023-01-06T07:36:08.196Z,101016.22
2023-01-06T07:38:36.221Z,101013.88
2023-01-06T07:41:03.843Z,101015.72
2023-01-06T07:43:31.748Z,101020.47
2023-01-06T07:45:59.443Z,101022.06
2023-01-06T07:48:27.406Z,101038.75
2023-01-06T07:50:55.036Z,101009.63
2023-01-06T07:53:23.281Z,101016.72
2023-01-06T07:55:52.979Z,101024.13
2023-01-06T07:58:23.946Z,101028.22
2023-01-06T08:00:52.173Z,101034.22
2023-01-06T08:03:20.192Z,101034.41
2023-01-06T08:05:47.903Z,101039.75
2023-01-06T08:08:15.838Z,101037.13
2023-01-06T08:10:44.100Z,101047.22
2023-01-06T08:13:12.116Z,101048.47
2023-01-06T08:15:40.433Z,101045.47
2023-01-06T08:18:08.748Z,101039.47
2023-01-06T08:20:36.404Z,101055.25
2023-01-06T08:23:04.358Z,101037.81
2023-01-06T08:25:31.942Z,101039.56
2023-01-06T08:28:00.491Z,101040.34
2023-01-06T08:30:29.542Z,101040.66
2023-01-06T08:32:59.550Z,101043.19
2023-01-06T08:35:27.666Z,101043.50
2023-01-06T08:37:55.781Z,101052.22
2023-01-06T08:40:23.778Z,101042.88
2023-01-06T08:42:51.939Z,101049.69
2023-01-06T08:45:19.492Z,101046.84
2023-01-06T08:47:47.760Z,101057.44
2023-01-06T08:50:15.605Z,101059.31
2023-01-06T08:52:43.586Z,101062.00
2023-01-06T08:55:11.134Z,101059.94
2023-01-06T08:57:39.769Z,101068.31
2023-01-06T09:00:08.295Z,101078.88
2023-01-06T09:02:36.297Z,101083.63
2023-01-06T09:05:06.231Z,101096.56
2023-01-06T09:07:34.243Z,101084.88
2023-01-06T09:10:44.123Z,101078.72
2023-01-06T09:13:15.120Z,101077.78
2023-01-06T09:15:45.247Z,101075.72
2023-01-06T09:18:13.043Z,101080.16
2023-01-06T09:20:40.769Z,101066.25
2023-01-06T09:23:08.921Z,101070.81
2023-01-06T09:25:36.494Z,101056.91
2023-01-06T09:28:04.409Z,101062.94
2023-01-06T09:30:32.319Z,101062.63
2023-01-06T09:33:00.286Z,101056.63
2023-01-06T09:35:27.896Z,101050.00
2023-01-06T09:37:56.025Z,101049.66
2023-01-06T09:40:41.647Z,101051.84
2023-01-06T09:43:44.367Z,101051.06
2023-01-06T09:46:16.770Z,101058.78
2023-01-06T09:49:25.918Z,101056.41
2023-01-06T09:52:03.327Z,101055.09
2023-01-06T09:54:42.255Z,101052.38
2023-01-06T09:57:20.614Z,101058.88
2023-01-06T10:00:10.936Z,101065.47
2023-01-06T10:02:42.529Z,101044.66
2023-01-06T10:05:28.316Z,101043.84
2023-01-06T10:08:39.169Z,101071.00
2023-01-06T10:11:31.449Z,101043.34
2023-01-06T10:14:53.022Z,101031.84
2023-01-06T10:17:47.871Z,101034.72
2023-01-06T10:21:10.347Z,101047.00
2023-01-06T10:24:39.857Z,101031.25
2023-01-06T10:28:03.738Z,101029.69
2023-01-06T10:30:44.947Z,101027.75
2023-01-06T10:33:31.159Z,101025.34
2023-01-06T10:36:01.908Z,101021.38
2023-01-06T10:38:40.379Z,101024.00
2023-01-06T10:41:32.804Z,101034.25
2023-01-06T10:44:00.861Z,101017.22
2023-01-06T10:46:36.133Z,101019.78
2023-01-06T10:49:08.539Z,101016.41
2023-01-06T10:51:40.280Z,101015.25
2023-01-06T10:54:15.524Z,101012.50
2023-01-06T10:57:01.603Z,101003.28
2023-01-06T10:59:30.624Z,101006.81
2023-01-06T11:01:59.154Z,100997.97
2023-01-06T11:04:28.274Z,101010.38
2023-01-06T11:07:01.502Z,101005.66
2023-01-06T11:09:41.485Z,101010.38
2023-01-06T11:12:17.268Z,101007.28
2023-01-06T11:15:02.730Z,101003.47
2023-01-06T11:17:31.623Z,101004.13
2023-01-06T11:20:14.430Z,100998.25
2023-01-06T11:22:43.832Z,101002.19
2023-01-06T11:25:20.959Z,101003.16
2023-01-06T11:28:09.735Z,100988.94
2023-01-06T11:31:09.309Z,100991.69
2023-01-06T11:34:02.002Z,101000.03
2023-01-06T11:36:33.250Z,100992.34
2023-01-06T11:39:15.487Z,100993.94
2023-01-06T11:41:49.859Z,100985.53
2023-01-06T11:44:27.904Z,100985.09
2023-01-06T11:47:15.942Z,100967.41
2023-01-06T11:49:49.146Z,100970.41
2023-01-06T11:52:31.564Z,100952.66
2023-01-06T11:55:08.858Z,100953.47
2023-01-06T11:57:55.636Z,100959.78
2023-01-06T12:01:06.440Z,100963.38
2023-01-06T12:03:46.383Z,100972.13
2023-01-06T12:06:14.487Z,100964.03
2023-01-06T12:09:06.623Z,100959.75
2023-01-06T12:11:53.009Z,100960.63
2023-01-06T12:14:30.585Z,100952.28
2023-01-06T12:17:19.263Z,100938.06
2023-01-06T12:20:06.136Z,100942.00
2023-01-06T12:22:59.285Z,100955.09
2023-01-06T12:25:45.348Z,100955.88
2023-01-06T12:28:35.476Z,100954.53
2023-01-06T12:31:51.547Z,100952.91
2023-01-06T12:34:34.659Z,100949.63
2023-01-06T12:37:31.849Z,100948.34
2023-01-06T12:40:23.850Z,100946.84
2023-01-06T12:43:15.693Z,100951.19
2023-01-06T12:46:02.912Z,100952.44
2023-01-06T12:48:58.396Z,100944.31
2023-01-06T12:51:50.110Z,100959.38
2023-01-06T12:54:38.338Z,100965.97
2023-01-06T12:57:54.972Z,100966.28
2023-01-06T13:00:49.581Z,100960.59
2023-01-06T13:03:20.770Z,100961.28
2023-01-06T13:06:10.139Z,100963.34
2023-01-06T13:08:45.881Z,100965.72
2023-01-06T13:11:52.670Z,100966.00
2023-01-06T13:14:47.785Z,100969.13
2023-01-06T13:17:42.304Z,100973.44
2023-01-06T13:20:33.400Z,100964.06
2023-01-06T13:23:32.895Z,100974.09
2023-01-06T13:26:36.334Z,100963.91
2023-01-06T13:29:06.512Z,100963.44
2023-01-06T13:32:08.013Z,100977.00
2023-01-06T13:34:47.862Z,100967.41
2023-01-06T13:37:57.138Z,100970.72
2023-01-06T13:40:29.823Z,100974.56
2023-01-06T13:43:22.168Z,100978.75
2023-01-06T13:45:56.493Z,100968.94
2023-01-06T13:48:30.960Z,100970.88
2023-01-06T13:51:09.356Z,100977.47
2023-01-06T13:53:42.868Z,100979.53
2023-01-06T13:56:13.641Z,100979.31
2023-01-06T13:58:44.256Z,100982.28
2023-01-06T14:01:19.034Z,100986.34
2023-01-06T14:03:51.819Z,100984.25
2023-01-06T14:06:22.475Z,100984.94
2023-01-06T14:08:57.070Z,100980.97
2023-01-06T14:11:39.402Z,100981.69
2023-01-06T14:14:30.032Z,100985.41
2023-01-06T14:16:58.603Z,100984.16
2023-01-06T14:19:38.642Z,100983.63
2023-01-06T14:22:22.044Z,100989.59
2023-01-06T14:25:01.408Z,100982.09
2023-01-06T14:27:47.070Z,100984.88
2023-01-06T14:30:31.906Z,100983.31
2023-01-06T14:33:06.790Z,100988.50
2023-01-06T14:35:44.346Z,100980.22
2023-01-06T14:38:31.782Z,100971.25
2023-01-06T14:41:32.622Z,100977.09
2023-01-06T14:44:12.690Z,100981.78
2023-01-06T14:46:55.108Z,100990.75
2023-01-06T14:49:46.658Z,100987.06
2023-01-06T14:52:23.203Z,100982.22
2023-01-06T14:54:53.547Z,100984.47
2023-01-06T14:57:42.788Z,100987.81
2023-01-06T15:00:27.833Z,100987.38
2023-01-06T15:03:19.544Z,100994.19
2023-01-06T15:05:47.882Z,101001.81
2023-01-06T15:08:19.429Z,100995.53
2023-01-06T15:10:51.646Z,100992.38
2023-01-06T15:13:32.731Z,100989.13
2023-01-06T15:16:38.087Z,100988.56
2023-01-06T15:19:15.337Z,100986.41
2023-01-06T15:21:46.880Z,100978.53
2023-01-06T15:24:22.766Z,100983.81
2023-01-06T15:26:53.117Z,100988.53
2023-01-06T15:29:24.969Z,100983.81
2023-01-06T15:31:54.585Z,100985.88
2023-01-06T15:34:39.797Z,100977.09
2023-01-06T15:37:15.231Z,100981.09
2023-01-06T15:39:44.189Z,100980.84
2023-01-06T15:42:13.886Z,100985.53
2023-01-06T15:44:53.181Z,100982.78
2023-01-06T15:47:42.443Z,100983.19
2023-01-06T15:50:20.362Z,100991.97
2023-01-06T15:52:57.421Z,101002.28
2023-01-06T15:55:31.968Z,101003.47
2023-01-06T15:58:09.519Z,101012.34
2023-01-06T16:00:50.639Z,101000.53
2023-01-06T16:03:25.831Z,100998.03
2023-01-06T16:06:12.109Z,101002.47
2023-01-06T16:08:44.227Z,101010.06
2023-01-06T16:11:38.276Z,101012.28
2023-01-06T16:14:35.155Z,101012.28
2023-01-06T16:17:06.165Z,101004.56
2023-01-06T16:19:36.511Z,101010.72
2023-01-06T16:22:48.474Z,101009.59
2023-01-06T16:25:32.985Z,101010.25
2023-01-06T16:28:05.024Z,101012.94
2023-01-06T16:30:36.623Z,101006.75
2023-01-06T16:33:05.604Z,101011.34
2023-01-06T16:35:35.006Z,101006.00
2023-01-06T16:38:03.572Z,101006.00
2023-01-06T16:40:32.560Z,101013.41
2023-01-06T16:43:02.526Z,101007.41
2023-01-06T16:45:42.806Z,101002.47
2023-01-06T16:48:17.325Z,101002.16
2023-01-06T16:50:50.670Z,101001.03
2023-01-06T16:53:23.480Z,101003.41
2023-01-06T16:55:54.179Z,101003.84
2023-01-06T16:58:30.035Z,100998.84
2023-01-06T17:01:08.472Z,101001.34
2023-01-06T17:03:38.348Z,100991.59
2023-01-06T17:06:32.588Z,100990.97
2023-01-06T17:09:19.159Z,100993.28
2023-01-06T17:11:48.334Z,100982.56
2023-01-06T17:14:22.194Z,100975.63
2023-01-06T17:16:53.279Z,100970.25
2023-01-06T17:19:32.472Z,100971.50
2023-01-06T17:22:30.710Z,100973.84
2023-01-06T17:25:09.037Z,100973.84
2023-01-06T17:27:36.677Z,100975.63
2023-01-06T17:30:20.074Z,100971.72
2023-01-06T17:32:48.215Z,100967.16
2023-01-06T17:35:25.990Z,100953.28
2023-01-06T17:37:57.382Z,100957.56
2023-01-06T17:40:38.623Z,100949.38
2023-01-06T17:43:24.971Z,100953.16
2023-01-06T17:45:53.113Z,100946.06
2023-01-06T17:48:20.802Z,100948.25
2023-01-06T17:50:56.992Z,100950.31
2023-01-06T17:53:54.908Z,100952.50
2023-01-06T17:56:24.070Z,100966.53
2023-01-06T17:58:52.288Z,100967.16
2023-01-06T18:01:30.249Z,100973.03
2023-01-06T18:04:00.142Z,100973.53
2023-01-06T18:06:30.608Z,100965.50
2023-01-06T18:09:05.949Z,100966.94
2023-01-06T18:11:49.822Z,100980.22
2023-01-06T18:14:32.520Z,100985.28
2023-01-06T18:17:25.430Z,100984.19
2023-01-06T18:19:53.599Z,100970.16
2023-01-06T18:22:25.654Z,100963.06
2023-01-06T18:24:58.060Z,100965.75
2023-01-06T18:27:33.380Z,100958.81
2023-01-06T18:30:27.982Z,100947.94
2023-01-06T18:32:56.294Z,100958.00
2023-01-06T18:35:28.785Z,100956.91
2023-01-06T18:38:02.496Z,100953.75
2023-01-06T18:40:31.664Z,100959.91
2023-01-06T18:43:02.990Z,100960.69
2023-01-06T18:45:36.129Z,100963.53
2023-01-06T18:48:29.211Z,100957.25
2023-01-06T18:51:00.251Z,100956.47
2023-01-06T18:53:47.330Z,100960.22
2023-01-06T18:56:23.791Z,100973.63
2023-01-06T18:58:57.705Z,100979.78
2023-01-06T19:01:47.313Z,100975.56
2023-01-06T19:04:19.447Z,100982.34
2023-01-06T19:06:54.565Z,100988.81
2023-01-06T19:09:47.858Z,100991.34
2023-01-06T19:12:36.257Z,100990.25
2023-01-06T19:15:23.431Z,100986.78
2023-01-06T19:17:53.942Z,100987.22
2023-01-06T19:20:22.939Z,100998.09
2023-01-06T19:22:50.730Z,100994.47
2023-01-06T19:25:43.195Z,100977.94
2023-01-06T19:28:33.059Z,100978.25
2023-01-06T19:31:06.099Z,100976.97
2023-01-06T19:33:34.771Z,100974.91
2023-01-06T19:36:37.122Z,100987.84
2023-01-06T19:39:38.145Z,100986.91
2023-01-06T19:42:30.242Z,100987.97
2023-01-06T19:45:01.621Z,100981.22
2023-01-06T19:47:37.929Z,100984.03
2023-01-06T19:50:35.285Z,100978.50
2023-01-06T19:53:03.307Z,100977.69
2023-01-06T19:55:33.350Z,100986.84
2023-01-06T19:58:12.394Z,100987.63
2023-01-06T20:00:50.579Z,100986.84
2023-01-06T20:03:35.953Z,100993.75
2023-01-06T20:06:04.556Z,100992.69
2023-01-06T20:08:32.457Z,100991.56
2023-01-06T20:11:00.245Z,100995.38
2023-01-06T20:13:28.092Z,100996.41
2023-01-06T20:15:56.253Z,100993.75
2023-01-06T20:18:24.323Z,100994.88
2023-01-06T20:20:51.991Z,100997.03
2023-01-06T20:23:19.925Z,100999.72
2023-01-06T20:25:47.573Z,101003.50
2023-01-06T20:28:16.799Z,101007.28
2023-01-06T20:30:46.350Z,101006.50
2023-01-06T20:37:03.681Z,100993.25
2023-01-06T20:39:31.613Z,100998.78
2023-01-06T20:42:00.424Z,100999.91
2023-01-06T20:44:28.355Z,100991.44
2023-01-06T20:46:55.860Z,101002.66
2023-01-06T20:49:23.414Z,100999.53
2023-01-06T20:51:51.304Z,101000.47
2023-01-06T20:54:19.110Z,100998.25
2023-01-06T20:56:47.003Z,100995.72
2023-01-06T20:59:14.801Z,101001.75
2023-01-06T21:01:42.910Z,100994.03
2023-01-06T21:04:10.856Z,100993.25
2023-01-06T21:06:38.720Z,101004.28
2023-01-06T21:09:06.295Z,101002.84
2023-01-06T21:11:34.271Z,100994.50
2023-01-06T21:14:01.930Z,100994.50
2023-01-06T21:16:29.738Z,101004.13
2023-01-06T21:19:00.357Z,101006.81
2023-01-06T21:21:28.267Z,101001.59
2023-01-06T21:23:56.371Z,101002.69
2023-01-06T21:26:24.234Z,101001.59
2023-01-06T21:28:51.968Z,101013.72
2023-01-06T21:31:19.854Z,101011.38
2023-01-06T21:33:47.433Z,101012.00
2023-01-06T21:36:16.149Z,101009.50
2023-01-06T21:38:43.809Z,101011.19
2023-01-06T21:41:30.601Z,101013.41
2023-01-06T21:43:58.320Z,101013.72
2023-01-06T21:46:26.405Z,101013.72
2023-01-06T21:48:54.089Z,101010.41
2023-01-06T21:51:22.378Z,101015.47
2023-01-06T21:53:49.973Z,101022.41
2023-01-06T21:56:18.176Z,101030.13
2023-01-06T21:58:45.712Z,101023.19
2023-01-06T22:01:14.620Z,101028.56
2023-01-06T22:03:42.451Z,101022.72
2023-01-06T22:06:11.031Z,101019.91
2023-01-06T22:08:39.101Z,101008.22
2023-01-06T22:11:08.355Z,101014.19
2023-01-06T22:13:36.380Z,101016.41
2023-01-06T22:16:05.011Z,101010.88
2023-01-06T22:18:34.342Z,101005.19
2023-01-06T22:21:03.498Z,101008.50
2023-01-06T22:23:32.407Z,101001.09
2023-01-06T22:26:00.295Z,101007.69
2023-01-06T22:28:28.513Z,101005.03
2023-01-06T22:30:56.883Z,101001.84
2023-01-06T22:33:24.858Z,100994.63
2023-01-06T22:35:57.722Z,101000.75
2023-01-06T22:38:25.723Z,100994.63
2023-01-06T22:40:53.611Z,100999.66
2023-01-06T22:43:22.542Z,100992.41
2023-01-06T22:45:56.720Z,100999.34
2023-01-06T22:48:25.267Z,101002.50
2023-01-06T22:51:01.974Z,101004.88
2023-01-06T22:53:31.591Z,101005.81
2023-01-06T22:56:06.053Z,101001.41
2023-01-06T22:58:37.595Z,101006.59
2023-01-06T23:01:07.408Z,101006.47
2023-01-06T23:03:35.759Z,100996.72
2023-01-06T23:06:11.302Z,100998.13
2023-01-06T23:08:51.071Z,100991.03
2023-01-06T23:11:28.090Z,100995.78
2023-01-06T23:13:58.093Z,100991.50
2023-01-06T23:16:27.266Z,100996.56
2023-01-06T23:18:55.297Z,100993.09
2023-01-06T23:21:26.735Z,100996.56
2023-01-06T23:23:54.953Z,100988.66
2023-01-06T23:26:30.658Z,100986.00
2023-01-06T23:28:58.772Z,100988.22
2023-01-06T23:31:35.714Z,100984.75
2023-01-06T23:34:10.075Z,100984.41
2023-01-06T23:36:38.739Z,100976.84
2023-01-06T23:39:08.360Z,100971.19
2023-01-06T23:41:37.735Z,100965.47
2023-01-06T23:44:06.550Z,100972.91
2023-01-06T23:46:39.883Z,100971.34
2023-01-06T23:49:10.089Z,100973.53
2023-01-06T23:51:39.339Z,100974.03
2023-01-06T23:54:07.866Z,100974.03
2023-01-06T23:56:37.424Z,100968.16
2023-01-06T23:59:07.713Z,100967.69
